Buoy 51627

sailwx.info

Track history (hours):
 
Tides and Currents Weather Stations Pressure Air Temp Water Temp Dewpoint Dewpoint Depression Visibility Wind Speed Wind Dir Waves Ship Positions

Drifting buoy 51627

Last reported at 2016-Jul-23 22:00 UTC. Time now 2016-Jul-24 00:59 UTC.
Position N 16°29' E 133°13'.

Water temperature 30.6 ° C

Date/timePositionNaut miles runAvg speedWind from/ knotsBaromVisibWave heightAir tempDewpointWater temp
2016-Jul-23 22:00N 16°29' E 133°13'1 0.7 30.6
2016-Jul-23 21:00N 16°29' E 133°14'1 1.0 30.6
2016-Jul-23 20:00N 16°30' E 133°14'0 0.0 30.6
2016-Jul-23 18:00N 16°30' E 133°14'0 0.0 30.6
2016-Jul-23 17:00N 16°30' E 133°14'3 0.5 30.7
2016-Jul-23 11:00N 16°32' E 133°12'1 0.2 30.9
2016-Jul-23 08:00N 16°32' E 133°11'0 0.0 31.3
2016-Jul-23 07:00N 16°32' E 133°11'2 0.9 31.4
2016-Jul-23 05:00N 16°32' E 133°09'2 0.4 31.4
2016-Jul-23 00:00N 16°30' E 133°10'1 0.3 30.7
2016-Jul-22 22:00N 16°30' E 133°10'0 0.3 30.4
2016-Jul-22 21:00N 16°30' E 133°11'0 0.3 30.3
2016-Jul-22 20:00N 16°30' E 133°11'0 0.2 30.4
2016-Jul-22 19:00N 16°30' E 133°11'0 0.1 30.4
2016-Jul-22 18:00N 16°30' E 133°11'1 0.3 30.4
2016-Jul-22 13:00N 16°32' E 133°11'0 0.2 30.5
2016-Jul-22 11:00N 16°32' E 133°11'0 0.3 30.7
2016-Jul-22 10:00N 16°32' E 133°11'0 0.2 30.8
2016-Jul-22 09:00N 16°32' E 133°11'0 0.2 31.0
2016-Jul-22 08:00N 16°32' E 133°11'0 0.4 31.4
2016-Jul-22 07:00N 16°32' E 133°11'1 0.7 31.7
2016-Jul-22 05:00N 16°33' E 133°12'2 0.3 31.9
2016-Jul-22 00:00N 16°35' E 133°12'1 0.4 30.5
2016-Jul-21 22:00N 16°35' E 133°13'1 0.6 30.2
2016-Jul-21 21:00N 16°36' E 133°13'0 0.4 30.2
2016-Jul-21 20:00N 16°36' E 133°13'1 0.4 30.2
2016-Jul-21 18:00N 16°37' E 133°14'1 0.6 30.2
2016-Jul-21 16:00N 16°38' E 133°13'2 0.6 30.2
2016-Jul-21 12:00N 16°40' E 133°12'1 0.7 30.3
2016-Jul-21 11:00N 16°40' E 133°11'0 0.1 30.3
2016-Jul-21 10:00N 16°40' E 133°11'0 0.2 30.4
2016-Jul-21 09:00N 16°40' E 133°11'0 0.2 30.4
2016-Jul-21 08:00N 16°40' E 133°11'0 0.0 30.5
2016-Jul-21 07:00N 16°40' E 133°11'0 0.1 30.6
2016-Jul-21 05:00N 16°40' E 133°11'4 0.4 30.6
2016-Jul-20 20:00N 16°41' E 133°15'1 0.3 30.1
2016-Jul-20 18:00N 16°42' E 133°15'1 1.0 30.1
2016-Jul-20 17:00N 16°43' E 133°16'0 0.1 30.2
2016-Jul-20 16:00N 16°43' E 133°16'2 0.7 30.2
2016-Jul-20 13:00N 16°45' E 133°17'1 0.8 30.2
2016-Jul-20 12:00N 16°45' E 133°17'0 0.4 30.2
2016-Jul-20 11:00N 16°46' E 133°18'2 1.8 30.2
2016-Jul-20 10:00N 16°47' E 133°17'0 0.0 30.3
2016-Jul-20 09:00N 16°47' E 133°17'0 0.4 30.3
2016-Jul-20 08:00N 16°48' E 133°18'1 0.6 30.3
2016-Jul-20 06:00N 16°49' E 133°17'1 0.5 30.4
2016-Jul-20 05:00N 16°49' E 133°17'0 0.0 30.6
2016-Jul-20 04:00N 16°49' E 133°17'1 0.2 30.6
2016-Jul-20 01:00N 16°49' E 133°18'1 0.4 30.5
2016-Jul-19 23:00N 16°50' E 133°18'0 0.2 30.2
2016-Jul-19 21:00N 16°50' E 133°19'1 0.3 30.1
2016-Jul-19 18:00N 16°50' E 133°20'1 0.6 30.1
2016-Jul-19 17:00N 16°51' E 133°20'0 0.0 30.2
2016-Jul-19 16:00N 16°51' E 133°20'1 0.5 30.2
2016-Jul-19 13:00N 16°52' E 133°20'1 0.3 30.2
2016-Jul-19 11:00N 16°53' E 133°21'1 0.6 30.3
2016-Jul-19 09:00N 16°54' E 133°21'0 0.2 30.5
2016-Jul-19 08:00N 16°54' E 133°22'1 0.6 30.5
2016-Jul-19 06:00N 16°55' E 133°21'0 0.0 30.5
2016-Jul-19 04:00N 16°55' E 133°21'2 0.6 30.6
2016-Jul-19 01:00N 16°55' E 133°23'1 0.2 30.3
2016-Jul-18 21:00N 16°55' E 133°24'1 0.7 30.2
2016-Jul-18 20:00N 16°56' E 133°24'1 0.5 30.2
2016-Jul-18 19:00N 16°56' E 133°25'0 0.2 30.2
2016-Jul-18 18:00N 16°56' E 133°25'0 0.4 30.2
2016-Jul-18 17:00N 16°56' E 133°24'2 0.5 30.2
2016-Jul-18 13:00N 16°55' E 133°26'0 0.0 30.3
2016-Jul-18 12:00N 16°55' E 133°26'1 0.8 30.4
2016-Jul-18 11:00N 16°55' E 133°27'1 1.5 30.4
2016-Jul-18 10:00N 16°56' E 133°29'1 0.5 30.5
2016-Jul-18 09:00N 16°56' E 133°29'1 0.6 30.6
2016-Jul-18 08:00N 16°57' E 133°30'1 0.7 30.8
2016-Jul-18 07:00N 16°57' E 133°30'0 0.0 30.8
2016-Jul-18 06:00N 16°57' E 133°30'1 0.3 30.8
2016-Jul-18 04:00N 16°58' E 133°30'1 0.2 30.6
2016-Jul-18 00:00N 16°57' E 133°31'2 0.5 30.2
2016-Jul-17 20:00N 16°58' E 133°33'0 0.4 30.1
2016-Jul-17 19:00N 16°58' E 133°33'1 0.8 30.1
2016-Jul-17 18:00N 16°58' E 133°33'0 0.1 30.1
2016-Jul-17 17:00N 16°58' E 133°33'1 0.4 30.2
2016-Jul-17 13:00N 16°59' E 133°35'0 0.4 30.2
2016-Jul-17 12:00N 16°59' E 133°35'0 0.1 30.3
2016-Jul-17 09:00N 16°60' E 133°35'0 0.0 30.4
2016-Jul-17 08:00N 16°60' E 133°35'0 0.2 30.5
2016-Jul-17 07:00N 17°00' E 133°35'0 0.3 30.6
2016-Jul-17 06:00N 17°00' E 133°35'0 0.1 30.5
2016-Jul-17 05:00N 17°00' E 133°35'0 0.0 30.5
2016-Jul-17 04:00N 17°00' E 133°35'0 0.1 30.5
2016-Jul-17 00:00N 17°00' E 133°35'0 0.1 30.1
2016-Jul-16 22:00N 17°00' E 133°35'0 0.5 30.0
2016-Jul-16 21:00N 17°00' E 133°35'0 0.2 30.0
2016-Jul-16 20:00N 17°00' E 133°35'1 0.2 30.0
2016-Jul-16 17:00N 17°01' E 133°35'1 0.2 30.1
2016-Jul-16 12:00N 17°00' E 133°35'1 0.7 30.2
2016-Jul-16 11:00N 17°00' E 133°36'0 0.1 30.2
2016-Jul-16 09:00N 17°00' E 133°36'0 0.3 30.3
2016-Jul-16 08:00N 17°00' E 133°36'0 0.4 30.5
2016-Jul-16 07:00N 17°00' E 133°37'1 1.0 30.5
2016-Jul-16 06:00N 17°01' E 133°37'0 0.0 30.5
2016-Jul-16 05:00N 17°01' E 133°37'0 0.0 30.6
2016-Jul-16 04:00N 17°01' E 133°37'3 0.5 30.5
2016-Jul-15 22:00N 17°04' E 133°38'1 0.5 30.1
2016-Jul-15 21:00N 17°04' E 133°38'1 0.5 30.1
2016-Jul-15 20:00N 17°05' E 133°38'2 0.7 30.1
2016-Jul-15 17:00N 17°07' E 133°38'1 0.3 30.2
2016-Jul-15 13:00N 17°08' E 133°37'0 0.2 30.3
2016-Jul-15 12:00N 17°08' E 133°37'0 0.0 30.3
2016-Jul-15 11:00N 17°08' E 133°37'0 0.3 30.4
2016-Jul-15 10:00N 17°08' E 133°37'1 0.8 30.4
2016-Jul-15 09:00N 17°07' E 133°37'1 0.3 30.4
2016-Jul-15 07:00N 17°06' E 133°38'7 3.4 30.6
2016-Jul-15 05:00N 17°05' E 133°45'5 4.7 30.7
2016-Jul-15 04:00N 17°05' E 133°40'8 1.3 30.6
2016-Jul-14 22:00N 17°07' E 133°48'2 1.0 30.1
2016-Jul-14 20:00N 17°08' E 133°49'1 0.7 30.2
2016-Jul-14 19:00N 17°08' E 133°50'7 6.6 30.2
2016-Jul-14 18:00N 17°14' E 133°53'0 0.0 30.2
2016-Jul-14 17:00N 17°14' E 133°53'1 0.3 30.2
2016-Jul-14 13:00N 17°15' E 133°53'3 1.4 30.4
2016-Jul-14 11:00N 17°18' E 133°52'1 0.5 30.6
2016-Jul-14 09:00N 17°18' E 133°51'0 0.0 30.7
2016-Jul-14 08:00N 17°18' E 133°51'0 0.3 30.9
2016-Jul-14 07:00N 17°18' E 133°51'0 0.2 31.1
2016-Jul-14 05:00N 17°18' E 133°51'0 0.1 31.3
2016-Jul-14 01:00N 17°18' E 133°51'0 0.2 30.7
2016-Jul-14 00:00N 17°18' E 133°51'0 0.3 30.2
2016-Jul-13 23:00N 17°18' E 133°51'0 0.0 30.0
2016-Jul-13 22:00N 17°18' E 133°51'   29.9
Track history (hours):
 
Tides and Currents Weather Stations Pressure Air Temp Water Temp Dewpoint Dewpoint Depression Visibility Wind Speed Wind Dir Waves Ship Positions

Drifting buoy 51627

Last reported at 2016-Jul-23 22:00 UTC. Time now 2016-Jul-24 00:59 UTC.
Position N 16°29' E 133°13'.

Water temperature 30.6 ° C

Date/timePositionNaut miles runAvg speedWind from/ knotsBaromVisibWave heightAir tempDewpointWater temp
2016-Jul-23 22:00N 16°29' E 133°13'1 0.7 30.6
2016-Jul-23 21:00N 16°29' E 133°14'1 1.0 30.6
2016-Jul-23 20:00N 16°30' E 133°14'0 0.0 30.6
2016-Jul-23 18:00N 16°30' E 133°14'0 0.0 30.6
2016-Jul-23 17:00N 16°30' E 133°14'3 0.5 30.7
2016-Jul-23 11:00N 16°32' E 133°12'1 0.2 30.9
2016-Jul-23 08:00N 16°32' E 133°11'0 0.0 31.3
2016-Jul-23 07:00N 16°32' E 133°11'2 0.9 31.4
2016-Jul-23 05:00N 16°32' E 133°09'2 0.4 31.4
2016-Jul-23 00:00N 16°30' E 133°10'1 0.3 30.7
2016-Jul-22 22:00N 16°30' E 133°10'0 0.3 30.4
2016-Jul-22 21:00N 16°30' E 133°11'0 0.3 30.3
2016-Jul-22 20:00N 16°30' E 133°11'0 0.2 30.4
2016-Jul-22 19:00N 16°30' E 133°11'0 0.1 30.4
2016-Jul-22 18:00N 16°30' E 133°11'1 0.3 30.4
2016-Jul-22 13:00N 16°32' E 133°11'0 0.2 30.5
2016-Jul-22 11:00N 16°32' E 133°11'0 0.3 30.7
2016-Jul-22 10:00N 16°32' E 133°11'0 0.2 30.8
2016-Jul-22 09:00N 16°32' E 133°11'0 0.2 31.0
2016-Jul-22 08:00N 16°32' E 133°11'0 0.4 31.4
2016-Jul-22 07:00N 16°32' E 133°11'1 0.7 31.7
2016-Jul-22 05:00N 16°33' E 133°12'2 0.3 31.9
2016-Jul-22 00:00N 16°35' E 133°12'1 0.4 30.5
2016-Jul-21 22:00N 16°35' E 133°13'1 0.6 30.2
2016-Jul-21 21:00N 16°36' E 133°13'0 0.4 30.2
2016-Jul-21 20:00N 16°36' E 133°13'1 0.4 30.2
2016-Jul-21 18:00N 16°37' E 133°14'1 0.6 30.2
2016-Jul-21 16:00N 16°38' E 133°13'2 0.6 30.2
2016-Jul-21 12:00N 16°40' E 133°12'1 0.7 30.3
2016-Jul-21 11:00N 16°40' E 133°11'0 0.1 30.3
2016-Jul-21 10:00N 16°40' E 133°11'0 0.2 30.4
2016-Jul-21 09:00N 16°40' E 133°11'0 0.2 30.4
2016-Jul-21 08:00N 16°40' E 133°11'0 0.0 30.5
2016-Jul-21 07:00N 16°40' E 133°11'0 0.1 30.6
2016-Jul-21 05:00N 16°40' E 133°11'4 0.4 30.6
2016-Jul-20 20:00N 16°41' E 133°15'1 0.3 30.1
2016-Jul-20 18:00N 16°42' E 133°15'1 1.0 30.1
2016-Jul-20 17:00N 16°43' E 133°16'0 0.1 30.2
2016-Jul-20 16:00N 16°43' E 133°16'2 0.7 30.2
2016-Jul-20 13:00N 16°45' E 133°17'1 0.8 30.2
2016-Jul-20 12:00N 16°45' E 133°17'0 0.4 30.2
2016-Jul-20 11:00N 16°46' E 133°18'2 1.8 30.2
2016-Jul-20 10:00N 16°47' E 133°17'0 0.0 30.3
2016-Jul-20 09:00N 16°47' E 133°17'0 0.4 30.3
2016-Jul-20 08:00N 16°48' E 133°18'1 0.6 30.3
2016-Jul-20 06:00N 16°49' E 133°17'1 0.5 30.4
2016-Jul-20 05:00N 16°49' E 133°17'0 0.0 30.6
2016-Jul-20 04:00N 16°49' E 133°17'1 0.2 30.6
2016-Jul-20 01:00N 16°49' E 133°18'1 0.4 30.5
2016-Jul-19 23:00N 16°50' E 133°18'0 0.2 30.2
2016-Jul-19 21:00N 16°50' E 133°19'1 0.3 30.1
2016-Jul-19 18:00N 16°50' E 133°20'1 0.6 30.1
2016-Jul-19 17:00N 16°51' E 133°20'0 0.0 30.2
2016-Jul-19 16:00N 16°51' E 133°20'1 0.5 30.2
2016-Jul-19 13:00N 16°52' E 133°20'1 0.3 30.2
2016-Jul-19 11:00N 16°53' E 133°21'1 0.6 30.3
2016-Jul-19 09:00N 16°54' E 133°21'0 0.2 30.5
2016-Jul-19 08:00N 16°54' E 133°22'1 0.6 30.5
2016-Jul-19 06:00N 16°55' E 133°21'0 0.0 30.5
2016-Jul-19 04:00N 16°55' E 133°21'2 0.6 30.6
2016-Jul-19 01:00N 16°55' E 133°23'1 0.2 30.3
2016-Jul-18 21:00N 16°55' E 133°24'1 0.7 30.2
2016-Jul-18 20:00N 16°56' E 133°24'1 0.5 30.2
2016-Jul-18 19:00N 16°56' E 133°25'0 0.2 30.2
2016-Jul-18 18:00N 16°56' E 133°25'0 0.4 30.2
2016-Jul-18 17:00N 16°56' E 133°24'2 0.5 30.2
2016-Jul-18 13:00N 16°55' E 133°26'0 0.0 30.3
2016-Jul-18 12:00N 16°55' E 133°26'1 0.8 30.4
2016-Jul-18 11:00N 16°55' E 133°27'1 1.5 30.4
2016-Jul-18 10:00N 16°56' E 133°29'1 0.5 30.5
2016-Jul-18 09:00N 16°56' E 133°29'1 0.6 30.6
2016-Jul-18 08:00N 16°57' E 133°30'1 0.7 30.8
2016-Jul-18 07:00N 16°57' E 133°30'0 0.0 30.8
2016-Jul-18 06:00N 16°57' E 133°30'1 0.3 30.8
2016-Jul-18 04:00N 16°58' E 133°30'1 0.2 30.6
2016-Jul-18 00:00N 16°57' E 133°31'2 0.5 30.2
2016-Jul-17 20:00N 16°58' E 133°33'0 0.4 30.1
2016-Jul-17 19:00N 16°58' E 133°33'1 0.8 30.1
2016-Jul-17 18:00N 16°58' E 133°33'0 0.1 30.1
2016-Jul-17 17:00N 16°58' E 133°33'1 0.4 30.2
2016-Jul-17 13:00N 16°59' E 133°35'0 0.4 30.2
2016-Jul-17 12:00N 16°59' E 133°35'0 0.1 30.3
2016-Jul-17 09:00N 16°60' E 133°35'0 0.0 30.4
2016-Jul-17 08:00N 16°60' E 133°35'0 0.2 30.5
2016-Jul-17 07:00N 17°00' E 133°35'0 0.3 30.6
2016-Jul-17 06:00N 17°00' E 133°35'0 0.1 30.5
2016-Jul-17 05:00N 17°00' E 133°35'0 0.0 30.5
2016-Jul-17 04:00N 17°00' E 133°35'0 0.1 30.5
2016-Jul-17 00:00N 17°00' E 133°35'0 0.1 30.1
2016-Jul-16 22:00N 17°00' E 133°35'0 0.5 30.0
2016-Jul-16 21:00N 17°00' E 133°35'0 0.2 30.0
2016-Jul-16 20:00N 17°00' E 133°35'1 0.2 30.0
2016-Jul-16 17:00N 17°01' E 133°35'1 0.2 30.1
2016-Jul-16 12:00N 17°00' E 133°35'1 0.7 30.2
2016-Jul-16 11:00N 17°00' E 133°36'0 0.1 30.2
2016-Jul-16 09:00N 17°00' E 133°36'0 0.3 30.3
2016-Jul-16 08:00N 17°00' E 133°36'0 0.4 30.5
2016-Jul-16 07:00N 17°00' E 133°37'1 1.0 30.5
2016-Jul-16 06:00N 17°01' E 133°37'0 0.0 30.5
2016-Jul-16 05:00N 17°01' E 133°37'0 0.0 30.6
2016-Jul-16 04:00N 17°01' E 133°37'3 0.5 30.5
2016-Jul-15 22:00N 17°04' E 133°38'1 0.5 30.1
2016-Jul-15 21:00N 17°04' E 133°38'1 0.5 30.1
2016-Jul-15 20:00N 17°05' E 133°38'2 0.7 30.1
2016-Jul-15 17:00N 17°07' E 133°38'1 0.3 30.2
2016-Jul-15 13:00N 17°08' E 133°37'0 0.2 30.3
2016-Jul-15 12:00N 17°08' E 133°37'0 0.0 30.3
2016-Jul-15 11:00N 17°08' E 133°37'0 0.3 30.4
2016-Jul-15 10:00N 17°08' E 133°37'1 0.8 30.4
2016-Jul-15 09:00N 17°07' E 133°37'1 0.3 30.4
2016-Jul-15 07:00N 17°06' E 133°38'7 3.4 30.6
2016-Jul-15 05:00N 17°05' E 133°45'5 4.7 30.7
2016-Jul-15 04:00N 17°05' E 133°40'8 1.3 30.6
2016-Jul-14 22:00N 17°07' E 133°48'2 1.0 30.1
2016-Jul-14 20:00N 17°08' E 133°49'1 0.7 30.2
2016-Jul-14 19:00N 17°08' E 133°50'7 6.6 30.2
2016-Jul-14 18:00N 17°14' E 133°53'0 0.0 30.2
2016-Jul-14 17:00N 17°14' E 133°53'1 0.3 30.2
2016-Jul-14 13:00N 17°15' E 133°53'3 1.4 30.4
2016-Jul-14 11:00N 17°18' E 133°52'1 0.5 30.6
2016-Jul-14 09:00N 17°18' E 133°51'0 0.0 30.7
2016-Jul-14 08:00N 17°18' E 133°51'0 0.3 30.9
2016-Jul-14 07:00N 17°18' E 133°51'0 0.2 31.1
2016-Jul-14 05:00N 17°18' E 133°51'0 0.1 31.3
2016-Jul-14 01:00N 17°18' E 133°51'0 0.2 30.7
2016-Jul-14 00:00N 17°18' E 133°51'0 0.3 30.2
2016-Jul-13 23:00N 17°18' E 133°51'0 0.0 30.0
2016-Jul-13 22:00N 17°18' E 133°51'   29.9

Dump ship's entire track history